createdAt,value
2019-02-04T00:02:26.520Z,1.20
2019-02-04T00:04:57.153Z,1.10
2019-02-04T00:07:28.454Z,1.00
2019-02-04T00:09:59.486Z,0.90
2019-02-04T00:12:30.433Z,0.90
2019-02-04T00:15:01.109Z,0.90
2019-02-04T00:17:31.736Z,0.80
2019-02-04T00:20:02.379Z,0.80
2019-02-04T00:22:32.957Z,0.80
2019-02-04T00:25:03.831Z,0.80
2019-02-04T00:27:34.415Z,0.70
2019-02-04T00:30:07.200Z,0.70
2019-02-04T00:32:37.882Z,0.60
2019-02-04T00:35:08.646Z,0.70
2019-02-04T00:37:39.243Z,0.70
2019-02-04T00:40:15.323Z,0.80
2019-02-04T00:42:45.940Z,0.80
2019-02-04T00:45:16.481Z,0.80
2019-02-04T00:47:47.149Z,0.70
2019-02-04T00:50:18.246Z,0.70
2019-02-04T00:52:49.327Z,0.60
2019-02-04T00:55:20.307Z,0.60
2019-02-04T00:57:50.860Z,0.60
2019-02-04T01:00:26.916Z,0.50
2019-02-04T01:02:58.054Z,0.40
2019-02-04T01:05:28.683Z,0.50
2019-02-04T01:07:59.649Z,0.40
2019-02-04T01:10:30.257Z,0.40
2019-02-04T01:13:01.313Z,0.40
2019-02-04T01:15:31.870Z,0.40
2019-02-04T01:18:02.553Z,0.40
2019-02-04T01:20:33.231Z,0.40
2019-02-04T01:23:04.016Z,0.50
2019-02-04T01:25:34.605Z,0.50
2019-02-04T01:28:05.417Z,0.40
2019-02-04T01:30:36.015Z,0.40
2019-02-04T01:33:06.663Z,0.40
2019-02-04T01:35:37.281Z,0.40
2019-02-04T01:38:07.999Z,0.30
2019-02-04T01:40:38.641Z,0.20
2019-02-04T01:43:09.524Z,0.00
2019-02-04T01:45:40.341Z,-0.10
2019-02-04T01:48:10.879Z,-0.10
2019-02-04T01:50:42.130Z,-0.20
2019-02-04T01:53:12.822Z,-0.30
2019-02-04T01:55:43.407Z,-0.30
2019-02-04T01:58:13.971Z,-0.40
2019-02-04T02:00:44.719Z,-0.40
2019-02-04T02:03:15.416Z,-0.50
2019-02-04T02:05:46.009Z,-0.40
2019-02-04T02:08:16.589Z,-0.40
2019-02-04T02:10:47.190Z,-0.50
2019-02-04T02:13:18.175Z,-0.40
2019-02-04T02:15:49.472Z,-0.40
2019-02-04T02:18:20.170Z,-0.40
2019-02-04T02:20:50.798Z,-0.30
2019-02-04T02:23:21.510Z,-0.20
2019-02-04T02:25:52.464Z,-0.20
2019-02-04T02:28:23.635Z,-0.10
2019-02-04T02:30:54.597Z,0.00
2019-02-04T02:33:25.461Z,0.10
2019-02-04T02:35:56.047Z,-0.10
2019-02-04T02:38:27.155Z,-0.40
2019-02-04T02:40:58.024Z,-0.50
2019-02-04T02:43:28.592Z,-0.40
2019-02-04T02:45:59.669Z,-0.20
2019-02-04T02:48:30.217Z,-0.10
2019-02-04T02:51:00.916Z,0.00
2019-02-04T02:53:31.476Z,-0.20
2019-02-04T02:56:02.178Z,-0.10
2019-02-04T02:58:32.758Z,-0.10
2019-02-04T03:01:04.098Z,-0.10
2019-02-04T03:03:34.802Z,0.00
2019-02-04T03:06:05.371Z,0.00
2019-02-04T03:08:36.972Z,-0.10
2019-02-04T03:11:07.528Z,-0.10
2019-02-04T03:13:38.245Z,-0.20
2019-02-04T03:16:08.846Z,-0.30
2019-02-04T03:18:39.604Z,-0.20
2019-02-04T03:21:10.526Z,-0.10
2019-02-04T03:23:41.617Z,0.00
2019-02-04T03:26:12.185Z,0.00
2019-02-04T03:28:42.946Z,-0.20
2019-02-04T03:31:13.500Z,-0.30
2019-02-04T03:33:44.289Z,-0.20
2019-02-04T03:36:14.840Z,-0.10
2019-02-04T03:38:45.465Z,0.00
2019-02-04T03:41:16.021Z,0.10
2019-02-04T03:43:47.043Z,0.30
2019-02-04T03:46:17.591Z,0.30
2019-02-04T03:48:48.628Z,0.30
2019-02-04T03:51:19.199Z,0.30
2019-02-04T03:53:49.869Z,0.30
2019-02-04T03:56:20.783Z,0.30
2019-02-04T03:58:51.432Z,0.20
2019-02-04T04:01:21.976Z,0.30
2019-02-04T04:03:52.877Z,0.30
2019-02-04T04:06:23.781Z,0.30
2019-02-04T04:08:55.223Z,0.20
2019-02-04T04:11:26.173Z,0.10
2019-02-04T04:13:56.867Z,0.00
2019-02-04T04:16:27.432Z,0.00
2019-02-04T04:18:58.685Z,0.10
2019-02-04T04:21:29.614Z,0.00
2019-02-04T04:24:00.315Z,-0.20
2019-02-04T04:26:30.875Z,-0.20
2019-02-04T04:29:01.747Z,-0.20
2019-02-04T04:31:32.309Z,-0.10
2019-02-04T04:34:03.110Z,-0.10
2019-02-04T04:36:34.019Z,-0.10
2019-02-04T04:39:06.459Z,0.00
2019-02-04T04:41:37.315Z,-0.10
2019-02-04T04:44:07.904Z,-0.20
2019-02-04T04:46:38.986Z,-0.30
2019-02-04T04:49:09.559Z,-0.40
2019-02-04T04:51:40.306Z,-0.40
2019-02-04T04:54:11.207Z,-0.30
2019-02-04T04:56:41.873Z,-0.30
2019-02-04T04:59:12.787Z,-0.30
2019-02-04T05:01:43.582Z,-0.40
2019-02-04T05:04:14.641Z,-0.50
2019-02-04T05:06:45.331Z,-0.60
2019-02-04T05:09:15.955Z,-0.60
2019-02-04T05:11:46.701Z,-0.60
2019-02-04T05:14:17.562Z,-0.70
2019-02-04T05:16:48.943Z,-0.70
2019-02-04T05:19:19.524Z,-0.80
2019-02-04T05:21:50.283Z,-0.70
2019-02-04T05:24:20.848Z,-0.70
2019-02-04T05:26:51.633Z,-0.80
2019-02-04T05:29:22.181Z,-0.90
2019-02-04T05:31:52.866Z,-0.90
2019-02-04T05:34:23.423Z,-0.90
2019-02-04T05:36:54.156Z,-0.90
2019-02-04T05:39:25.007Z,-0.90
2019-02-04T05:41:55.748Z,-1.00
2019-02-04T05:44:26.330Z,-1.00
2019-02-04T05:46:57.059Z,-1.10
2019-02-04T05:49:27.654Z,-1.10
2019-02-04T05:51:58.864Z,-1.10
2019-02-04T05:54:29.489Z,-1.20
2019-02-04T05:57:00.198Z,-1.20
2019-02-04T05:59:30.758Z,-1.20
2019-02-04T06:02:01.459Z,-1.30
2019-02-04T06:04:32.420Z,-1.30
2019-02-04T06:07:03.000Z,-1.40
2019-02-04T06:09:33.758Z,-1.40
2019-02-04T06:12:04.758Z,-1.40
2019-02-04T06:14:35.409Z,-1.50
2019-02-04T06:17:06.424Z,-1.50
2019-02-04T06:19:37.093Z,-1.50
2019-02-04T06:22:07.677Z,-1.50
2019-02-04T06:24:38.362Z,-1.60
2019-02-04T06:27:10.319Z,-1.60
2019-02-04T06:29:41.260Z,-1.60
2019-02-04T06:32:11.893Z,-1.60
2019-02-04T06:34:42.617Z,-1.60
2019-02-04T06:37:13.255Z,-1.70
2019-02-04T06:39:44.075Z,-1.70
2019-02-04T06:42:14.643Z,-1.70
2019-02-04T06:44:45.648Z,-1.70
2019-02-04T06:47:16.230Z,-1.80
2019-02-04T06:49:46.977Z,-1.70
2019-02-04T06:52:17.556Z,-1.70
2019-02-04T06:54:48.554Z,-1.70
2019-02-04T06:57:19.507Z,-1.60
2019-02-04T06:59:50.161Z,-1.50
2019-02-04T07:02:20.734Z,-1.50
2019-02-04T07:04:51.418Z,-1.60
2019-02-04T07:07:22.176Z,-1.60
2019-02-04T07:09:53.166Z,-1.60
2019-02-04T07:12:25.993Z,-1.50
2019-02-04T07:14:56.714Z,-1.40
2019-02-04T07:17:27.293Z,-1.30
2019-02-04T07:19:57.883Z,-1.20
2019-02-04T07:22:28.441Z,-1.20
2019-02-04T07:24:59.604Z,-1.10
2019-02-04T07:27:30.509Z,-1.10
2019-02-04T07:30:01.249Z,-0.90
2019-02-04T07:32:31.826Z,-0.90
2019-02-04T07:35:02.783Z,-1.00
2019-02-04T07:37:33.729Z,-0.90
2019-02-04T07:40:05.121Z,-0.80
2019-02-04T07:42:35.773Z,-0.80
2019-02-04T07:45:07.412Z,-0.70
2019-02-04T07:47:38.083Z,-0.70
2019-02-04T07:50:10.005Z,-0.60
2019-02-04T07:52:40.697Z,-0.60
2019-02-04T07:55:11.917Z,-0.60
2019-02-04T07:57:42.946Z,-0.60
2019-02-04T08:00:18.339Z,-0.50
2019-02-04T08:02:49.568Z,-0.50
2019-02-04T08:05:20.108Z,-0.40
2019-02-04T08:07:50.673Z,-0.30
2019-02-04T08:10:21.947Z,-0.30
2019-02-04T08:13:01.108Z,-0.20
2019-02-04T08:15:31.984Z,-0.10
2019-02-04T08:18:02.921Z,-0.10
2019-02-04T08:20:33.489Z,0.00
2019-02-04T08:23:04.173Z,0.10
2019-02-04T08:25:35.127Z,0.20
2019-02-04T08:28:05.962Z,0.30
2019-02-04T08:30:38.678Z,0.40
2019-02-04T08:33:09.507Z,0.40
2019-02-04T08:35:40.154Z,0.50
2019-02-04T08:38:11.078Z,0.60
2019-02-04T08:40:42.008Z,0.80
2019-02-04T08:43:12.600Z,0.80
2019-02-04T08:45:43.535Z,0.90
2019-02-04T08:48:14.532Z,1.00
2019-02-04T08:50:45.421Z,1.00
2019-02-04T08:53:16.271Z,1.10
2019-02-04T08:55:46.963Z,1.10
2019-02-04T08:58:17.530Z,1.20
2019-02-04T09:00:48.443Z,1.30
2019-02-04T09:03:19.041Z,1.40
2019-02-04T09:05:49.674Z,1.50
2019-02-04T09:08:20.511Z,1.60
2019-02-04T09:10:51.079Z,1.60
2019-02-04T09:13:21.768Z,1.70
2019-02-04T09:15:52.345Z,1.90
2019-02-04T09:18:23.049Z,2.00
2019-02-04T09:20:53.720Z,2.00
2019-02-04T09:23:24.387Z,2.00
2019-02-04T09:25:54.933Z,2.00
2019-02-04T09:28:25.657Z,2.10
2019-02-04T09:30:56.218Z,2.10
2019-02-04T09:33:26.918Z,2.30
2019-02-04T09:35:58.013Z,2.30
2019-02-04T09:38:29.047Z,2.30
2019-02-04T09:40:59.604Z,2.40
2019-02-04T09:43:30.805Z,2.50
2019-02-04T09:46:01.378Z,2.60
2019-02-04T09:48:32.415Z,2.70
2019-02-04T09:51:04.231Z,2.70
2019-02-04T09:53:35.171Z,2.70
2019-02-04T09:56:06.325Z,2.80
2019-02-04T09:58:37.202Z,2.80
2019-02-04T10:01:08.382Z,2.90
2019-02-04T10:03:38.950Z,2.90
2019-02-04T10:06:09.615Z,3.10
2019-02-04T10:08:40.332Z,3.10
2019-02-04T10:11:11.105Z,3.20
2019-02-04T10:13:41.797Z,3.10
2019-02-04T10:16:12.423Z,3.10
2019-02-04T10:18:44.102Z,3.10
2019-02-04T10:21:15.069Z,3.20
2019-02-04T10:23:45.954Z,3.20
2019-02-04T10:26:16.619Z,3.30
2019-02-04T10:28:47.340Z,3.50
2019-02-04T10:31:17.960Z,3.50
2019-02-04T10:33:48.625Z,3.40
2019-02-04T10:36:19.242Z,3.30
2019-02-04T10:38:50.307Z,3.20
2019-02-04T10:41:21.075Z,3.50
2019-02-04T10:43:52.090Z,3.80
2019-02-04T10:46:22.659Z,3.80
2019-02-04T10:48:53.770Z,3.80
2019-02-04T10:51:24.785Z,3.80
2019-02-04T10:53:55.705Z,3.80
2019-02-04T10:56:26.281Z,3.70
2019-02-04T10:58:56.827Z,3.40
2019-02-04T11:01:27.401Z,3.60
2019-02-04T11:03:58.464Z,3.90
2019-02-04T11:06:29.078Z,3.90
2019-02-04T11:08:59.699Z,3.90
2019-02-04T11:11:30.277Z,4.20
2019-02-04T11:14:00.968Z,4.70
2019-02-04T11:16:31.634Z,5.20
2019-02-04T11:19:02.687Z,4.90
2019-02-04T11:21:34.051Z,5.40
2019-02-04T11:24:05.243Z,5.80
2019-02-04T11:26:36.164Z,5.80
2019-02-04T11:29:07.013Z,5.40
2019-02-04T11:31:37.752Z,5.40
2019-02-04T11:34:08.405Z,5.30
2019-02-04T11:36:39.038Z,5.60
2019-02-04T11:39:10.966Z,5.70
2019-02-04T11:41:41.735Z,6.10
2019-02-04T11:44:12.412Z,5.40
2019-02-04T11:46:42.995Z,5.30
2019-02-04T11:49:13.675Z,5.20
2019-02-04T11:51:44.603Z,5.50
2019-02-04T11:54:15.592Z,5.40
2019-02-04T11:56:47.152Z,5.50
2019-02-04T11:59:18.391Z,6.20
2019-02-04T12:01:49.002Z,6.10
2019-02-04T12:04:19.701Z,6.80
2019-02-04T12:06:50.521Z,6.80
2019-02-04T12:09:21.521Z,7.20
2019-02-04T12:11:55.637Z,7.20
2019-02-04T12:14:25.434Z,6.70
2019-02-04T12:16:59.053Z,6.40
2019-02-04T12:19:28.664Z,6.30
2019-02-04T12:21:59.337Z,6.10
2019-02-04T12:24:31.693Z,5.80
2019-02-04T12:27:02.341Z,6.30
2019-02-04T12:29:32.963Z,6.30
2019-02-04T12:32:03.619Z,6.20
2019-02-04T12:34:34.232Z,6.00
2019-02-04T12:37:05.122Z,6.10
2019-02-04T12:39:35.845Z,6.40
2019-02-04T12:42:06.831Z,6.00
2019-02-04T12:44:37.415Z,6.20
2019-02-04T12:47:08.767Z,5.90
2019-02-04T12:49:40.089Z,6.30
2019-02-04T12:52:10.885Z,6.10
2019-02-04T12:54:41.578Z,6.10
2019-02-04T12:57:12.153Z,6.10
2019-02-04T12:59:45.147Z,6.30
2019-02-04T13:02:15.076Z,6.40
2019-02-04T13:04:45.782Z,5.90
2019-02-04T13:07:16.353Z,5.90
2019-02-04T13:09:46.950Z,5.80
2019-02-04T13:12:17.531Z,6.20
2019-02-04T13:14:48.212Z,6.20
2019-02-04T13:17:19.152Z,6.20
2019-02-04T13:19:49.828Z,5.90
2019-02-04T13:22:20.686Z,6.00
2019-02-04T13:24:51.398Z,6.00
2019-02-04T13:27:21.969Z,5.90
2019-02-04T13:29:52.868Z,6.00
2019-02-04T13:32:23.408Z,5.90
2019-02-04T13:34:55.387Z,5.70
2019-02-04T13:37:26.559Z,5.90
2019-02-04T13:39:57.279Z,5.80
2019-02-04T13:42:28.628Z,5.60
2019-02-04T13:44:59.630Z,5.90
2019-02-04T13:47:30.222Z,6.00
2019-02-04T13:50:00.886Z,6.00
2019-02-04T13:52:31.483Z,6.40
2019-02-04T13:55:02.152Z,6.60
2019-02-04T13:57:33.101Z,6.70
2019-02-04T14:00:04.339Z,6.40
2019-02-04T14:02:35.177Z,6.70
2019-02-04T14:05:06.828Z,6.70
2019-02-04T14:07:37.391Z,6.60
2019-02-04T14:10:18.427Z,6.40
2019-02-04T14:12:49.380Z,6.10
2019-02-04T14:15:20.362Z,5.80
2019-02-04T14:17:51.076Z,5.90
2019-02-04T14:20:22.432Z,5.80
2019-02-04T14:22:53.550Z,6.20
2019-02-04T14:25:24.349Z,6.20
2019-02-04T14:27:54.951Z,6.30
2019-02-04T14:30:29.554Z,6.20
2019-02-04T14:33:00.426Z,6.40
2019-02-04T14:35:31.287Z,5.60
2019-02-04T14:38:02.609Z,5.50
2019-02-04T14:40:33.521Z,5.60
2019-02-04T14:43:19.270Z,5.50
2019-02-04T14:46:52.075Z,5.60
2019-02-04T14:50:25.955Z,5.70
2019-02-04T14:54:02.142Z,5.90
2019-02-04T14:57:07.850Z,5.90
2019-02-04T14:59:52.659Z,5.80
2019-02-04T15:03:19.033Z,5.80
2019-02-04T15:06:12.704Z,5.80
2019-02-04T15:09:38.042Z,6.20
2019-02-04T15:12:41.435Z,6.30
2019-02-04T15:16:05.062Z,6.00
2019-02-04T15:19:32.793Z,5.90
2019-02-04T15:22:56.803Z,6.00
2019-02-04T15:26:33.644Z,5.10
2019-02-04T15:29:29.533Z,4.50
2019-02-04T15:32:51.901Z,4.20
2019-02-04T15:36:29.425Z,4.00
2019-02-04T15:40:00.951Z,3.90
2019-02-04T15:43:25.145Z,3.70
2019-02-04T15:46:41.091Z,3.70
2019-02-04T15:50:21.090Z,3.70
2019-02-04T15:52:51.830Z,3.60
2019-02-04T15:55:22.885Z,3.50
2019-02-04T15:57:53.607Z,3.40
2019-02-04T16:00:24.553Z,3.30
2019-02-04T16:02:55.179Z,3.20
2019-02-04T16:05:26.206Z,3.10
2019-02-04T16:07:57.510Z,3.10
2019-02-04T16:10:28.292Z,2.90
2019-02-04T16:12:58.973Z,2.90
2019-02-04T16:15:29.534Z,2.80
2019-02-04T16:18:00.594Z,2.80
2019-02-04T16:20:31.843Z,2.70
2019-02-04T16:23:02.485Z,2.70
2019-02-04T16:25:33.101Z,2.60
2019-02-04T16:28:03.965Z,2.50
2019-02-04T16:30:34.549Z,2.40
2019-02-04T16:33:05.463Z,2.30
2019-02-04T16:35:36.036Z,2.30
2019-02-04T16:38:07.334Z,2.20
2019-02-04T16:40:38.318Z,2.20
2019-02-04T16:43:09.925Z,2.10
2019-02-04T16:45:40.630Z,2.10
2019-02-04T16:48:11.225Z,2.00
2019-02-04T16:50:41.820Z,2.00
2019-02-04T16:53:12.507Z,2.00
2019-02-04T16:55:44.069Z,1.90
2019-02-04T16:58:14.796Z,1.90
2019-02-04T17:00:45.532Z,1.90
2019-02-04T17:03:18.743Z,1.80
2019-02-04T17:05:49.185Z,1.70
2019-02-04T17:08:19.899Z,1.80
2019-02-04T17:10:50.863Z,1.70
2019-02-04T17:13:21.550Z,1.70
2019-02-04T17:15:52.849Z,1.60
2019-02-04T17:18:23.661Z,1.60
2019-02-04T17:20:54.268Z,1.50
2019-02-04T17:23:24.910Z,1.50
2019-02-04T17:25:55.523Z,1.50
2019-02-04T17:28:26.083Z,1.50
2019-02-04T17:30:56.798Z,1.40
2019-02-04T17:33:27.392Z,1.30
2019-02-04T17:35:58.069Z,1.30
2019-02-04T17:38:28.626Z,1.30
2019-02-04T17:40:59.355Z,1.30
2019-02-04T17:43:29.971Z,1.20
2019-02-04T17:46:00.930Z,1.20
2019-02-04T17:48:31.488Z,1.20
2019-02-04T17:51:02.777Z,1.10
2019-02-04T17:53:34.485Z,1.10
2019-02-04T17:56:08.553Z,1.10
2019-02-04T17:58:39.133Z,1.00
2019-02-04T18:01:10.041Z,1.00
2019-02-04T18:03:41.283Z,1.00
2019-02-04T18:06:12.119Z,1.00
2019-02-04T18:08:42.779Z,1.00
2019-02-04T18:11:13.642Z,1.00
2019-02-04T18:13:44.230Z,0.90
2019-02-04T18:16:16.701Z,0.90
2019-02-04T18:18:47.285Z,0.90
2019-02-04T18:21:18.262Z,0.90
2019-02-04T18:23:48.855Z,0.90
2019-02-04T18:26:19.691Z,0.90
2019-02-04T18:28:50.536Z,0.80
2019-02-04T18:31:21.377Z,0.90
2019-02-04T18:33:52.301Z,0.90
2019-02-04T18:36:24.288Z,1.00
2019-02-04T18:38:55.331Z,1.00
2019-02-04T18:41:26.583Z,1.00
2019-02-04T18:43:57.173Z,1.00
2019-02-04T18:46:28.424Z,0.90
2019-02-04T18:48:58.998Z,0.90
2019-02-04T18:51:30.223Z,0.90
2019-02-04T18:54:00.826Z,0.90
2019-02-04T18:56:32.613Z,1.00
2019-02-04T18:59:03.218Z,1.00
2019-02-04T19:01:33.922Z,1.00
2019-02-04T19:04:04.727Z,1.10
2019-02-04T19:06:47.115Z,1.10
2019-02-04T19:09:10.568Z,1.10
2019-02-04T19:11:41.257Z,1.10
2019-02-04T19:14:11.858Z,1.10
2019-02-04T19:16:42.666Z,1.00
2019-02-04T19:19:13.650Z,1.00
2019-02-04T19:21:44.221Z,1.10
2019-02-04T19:24:15.011Z,1.10
2019-02-04T19:26:45.586Z,1.20
2019-02-04T19:29:16.320Z,1.10
2019-02-04T19:31:47.256Z,1.10
2019-02-04T19:34:18.704Z,1.10
2019-02-04T19:36:49.264Z,1.10
2019-02-04T19:39:20.273Z,1.10
2019-02-04T19:41:51.062Z,1.10
2019-02-04T19:44:22.000Z,1.10
2019-02-04T19:46:52.571Z,1.10
2019-02-04T19:49:23.293Z,1.20
2019-02-04T19:51:55.318Z,1.20
2019-02-04T19:54:26.369Z,1.10
2019-02-04T19:56:56.923Z,1.10
2019-02-04T19:59:27.586Z,1.10
2019-02-04T20:01:58.193Z,1.20
2019-02-04T20:04:28.996Z,1.20
2019-02-04T20:06:59.932Z,1.20
2019-02-04T20:09:30.820Z,1.20
2019-02-04T20:12:02.010Z,1.20
2019-02-04T20:14:33.612Z,1.20
2019-02-04T20:17:04.761Z,1.20
2019-02-04T20:19:35.342Z,1.10
2019-02-04T20:22:06.242Z,1.10
2019-02-04T20:24:37.221Z,1.10
2019-02-04T20:27:07.976Z,1.10
2019-02-04T20:29:38.785Z,1.10
2019-02-04T20:32:09.578Z,1.10
2019-02-04T20:34:40.147Z,1.10
2019-02-04T20:37:10.927Z,1.10
2019-02-04T20:39:41.572Z,1.10
2019-02-04T20:42:12.144Z,1.10
2019-02-04T20:44:42.989Z,1.00
2019-02-04T20:47:13.827Z,1.00
2019-02-04T20:49:44.446Z,1.00
2019-02-04T20:52:15.512Z,1.00
2019-02-04T20:54:46.120Z,1.00
2019-02-04T20:57:16.873Z,1.00
2019-02-04T20:59:47.485Z,1.00
2019-02-04T21:02:18.202Z,1.00
2019-02-04T21:04:48.801Z,1.00
2019-02-04T21:07:19.616Z,1.00
2019-02-04T21:09:50.220Z,1.00
2019-02-04T21:12:20.961Z,0.90
2019-02-04T21:14:51.582Z,0.90
2019-02-04T21:17:22.510Z,1.00
2019-02-04T21:19:53.964Z,0.90
2019-02-04T21:22:24.558Z,0.90
2019-02-04T21:24:56.674Z,0.90
2019-02-04T21:27:27.353Z,0.90
2019-02-04T21:29:59.218Z,0.90
2019-02-04T21:32:30.231Z,0.80
2019-02-04T21:35:00.794Z,0.80
2019-02-04T21:37:31.565Z,0.80
2019-02-04T21:40:02.317Z,0.80
2019-02-04T21:42:33.227Z,0.70
2019-02-04T21:45:07.048Z,0.70
2019-02-04T21:47:37.751Z,0.60
2019-02-04T21:50:13.135Z,0.60
2019-02-04T21:52:44.238Z,0.50
2019-02-04T21:55:16.027Z,0.50
2019-02-04T21:57:46.928Z,0.50
2019-02-04T22:00:38.759Z,0.50
2019-02-04T22:03:09.413Z,0.50
2019-02-04T22:05:40.393Z,0.40
2019-02-04T22:08:11.586Z,0.40
2019-02-04T22:10:42.625Z,0.40
2019-02-04T22:13:13.212Z,0.40
2019-02-04T22:15:44.236Z,0.30
2019-02-04T22:18:15.185Z,0.30
2019-02-04T22:20:46.769Z,0.30
2019-02-04T22:23:17.459Z,0.30
2019-02-04T22:25:48.659Z,0.30
2019-02-04T22:28:19.423Z,0.30
2019-02-04T22:30:50.472Z,0.20
2019-02-04T22:33:21.231Z,0.20
2019-02-04T22:35:52.315Z,0.20
2019-02-04T22:38:23.232Z,0.10
2019-02-04T22:40:53.813Z,0.10
2019-02-04T22:43:24.536Z,0.10
2019-02-04T22:45:55.121Z,0.10
2019-02-04T22:48:26.242Z,0.00
2019-02-04T22:50:57.024Z,0.00
2019-02-04T22:53:27.911Z,0.00
2019-02-04T22:55:58.928Z,0.00
2019-02-04T22:58:29.678Z,-0.10
2019-02-04T23:01:40.015Z,-0.10
2019-02-04T23:04:11.255Z,-0.10
2019-02-04T23:06:41.924Z,-0.20
2019-02-04T23:09:13.196Z,-0.20
2019-02-04T23:11:43.919Z,-0.30
2019-02-04T23:14:14.858Z,-0.30
2019-02-04T23:16:45.799Z,-0.30
2019-02-04T23:19:16.493Z,-0.30
2019-02-04T23:21:47.564Z,-0.40
2019-02-04T23:24:18.469Z,-0.40
2019-02-04T23:26:49.114Z,-0.30
2019-02-04T23:29:19.703Z,-0.30
2019-02-04T23:31:50.709Z,-0.30
2019-02-04T23:34:21.301Z,-0.40
2019-02-04T23:36:51.936Z,-0.40
2019-02-04T23:39:22.827Z,-0.40
2019-02-04T23:41:57.536Z,-0.40
2019-02-04T23:44:25.818Z,-0.40
2019-02-04T23:46:56.496Z,-0.50
2019-02-04T23:49:27.379Z,-0.40
2019-02-04T23:51:58.167Z,-0.40
2019-02-04T23:54:29.043Z,-0.40
2019-02-04T23:56:59.631Z,-0.40
2019-02-04T23:59:31.229Z,-0.40
